createdAt,value
2023-05-01T00:02:27.166Z,2.60
2023-05-01T00:04:55.178Z,5.00
2023-05-01T00:07:23.017Z,2.70
2023-05-01T00:09:51.767Z,5.13
2023-05-01T00:12:19.372Z,3.38
2023-05-01T00:14:47.423Z,6.95
2023-05-01T00:17:17.219Z,2.92
2023-05-01T00:19:47.117Z,4.88
2023-05-01T00:22:14.853Z,2.60
2023-05-01T00:24:42.949Z,5.20
2023-05-01T00:27:10.989Z,3.40
2023-05-01T00:29:38.869Z,3.20
2023-05-01T00:32:07.100Z,2.85
2023-05-01T00:34:36.339Z,4.05
2023-05-01T00:37:04.416Z,8.75
2023-05-01T00:39:32.711Z,4.43
2023-05-01T00:42:00.475Z,3.40
2023-05-01T00:44:28.455Z,3.33
2023-05-01T00:46:56.789Z,3.45
2023-05-01T00:49:25.329Z,5.60
2023-05-01T00:51:55.181Z,3.33
2023-05-01T00:54:25.282Z,4.90
2023-05-01T00:56:54.641Z,4.65
2023-05-01T00:59:24.371Z,3.90
2023-05-01T01:01:56.732Z,5.30
2023-05-01T01:04:26.347Z,3.20
2023-05-01T01:07:05.531Z,3.47
2023-05-01T01:09:40.277Z,4.03
2023-05-01T01:12:18.130Z,7.88
2023-05-01T01:14:51.737Z,2.88
2023-05-01T01:17:27.454Z,5.18
2023-05-01T01:20:15.205Z,4.15
2023-05-01T01:22:50.682Z,3.03
2023-05-01T01:26:00.283Z,5.35
2023-05-01T01:28:59.648Z,3.55
2023-05-01T01:31:36.602Z,4.65
2023-05-01T01:34:14.194Z,3.90
2023-05-01T01:36:47.536Z,3.95
2023-05-01T01:39:31.047Z,5.50
2023-05-01T01:42:01.295Z,4.28
2023-05-01T01:44:35.213Z,2.72
2023-05-01T01:47:09.266Z,3.92
2023-05-01T01:49:42.225Z,3.70
2023-05-01T01:52:14.151Z,3.72
2023-05-01T01:54:46.145Z,4.63
2023-05-01T01:57:17.364Z,3.50
2023-05-01T01:59:46.992Z,4.25
2023-05-01T02:02:18.429Z,3.42
2023-05-01T02:04:49.597Z,3.88
2023-05-01T02:07:18.729Z,3.45
2023-05-01T02:09:48.129Z,4.13
2023-05-01T02:12:18.028Z,4.10
2023-05-01T02:14:47.172Z,6.82
2023-05-01T02:17:16.819Z,6.07
2023-05-01T02:19:48.133Z,3.28
2023-05-01T02:22:18.896Z,3.50
2023-05-01T02:24:48.241Z,4.15
2023-05-01T02:27:19.945Z,3.95
2023-05-01T02:29:47.706Z,2.92
2023-05-01T02:32:15.543Z,3.45
2023-05-01T02:34:43.230Z,3.35
2023-05-01T02:37:12.927Z,3.40
2023-05-01T02:39:43.464Z,3.28
2023-05-01T02:42:12.732Z,3.30
2023-05-01T02:44:49.709Z,4.22
2023-05-01T02:47:20.875Z,6.82
2023-05-01T02:49:49.976Z,4.38
2023-05-01T02:52:20.706Z,3.45
2023-05-01T02:54:52.826Z,3.38
2023-05-01T02:57:20.999Z,4.05
2023-05-01T02:59:48.950Z,3.42
2023-05-01T03:02:16.927Z,4.53
2023-05-01T03:04:44.862Z,4.95
2023-05-01T03:07:12.938Z,2.90
2023-05-01T03:09:42.689Z,4.13
2023-05-01T03:12:10.752Z,4.43
2023-05-01T03:14:40.460Z,3.78
2023-05-01T03:17:08.293Z,3.58
2023-05-01T03:19:37.394Z,3.15
2023-05-01T03:22:05.177Z,3.22
2023-05-01T03:24:32.992Z,3.53
2023-05-01T03:27:02.359Z,4.10
2023-05-01T03:29:30.262Z,6.97
2023-05-01T03:31:58.618Z,3.83
2023-05-01T03:34:27.442Z,4.20
2023-05-01T03:36:56.742Z,4.40
2023-05-01T03:39:27.011Z,3.05
2023-05-01T03:42:22.156Z,4.25
2023-05-01T03:44:51.498Z,3.72
2023-05-01T03:47:20.324Z,3.70
2023-05-01T03:49:48.778Z,6.35
2023-05-01T03:52:16.526Z,5.28
2023-05-01T03:54:45.850Z,5.00
2023-05-01T03:57:28.440Z,4.25
2023-05-01T03:59:56.483Z,5.78
2023-05-01T04:02:24.860Z,4.47
2023-05-01T04:04:52.676Z,3.97
2023-05-01T04:07:20.725Z,4.90
2023-05-01T04:09:50.945Z,5.65
2023-05-01T04:12:18.811Z,7.70
2023-05-01T04:14:48.549Z,5.78
2023-05-01T04:17:16.672Z,4.25
2023-05-01T04:19:44.735Z,6.25
2023-05-01T04:22:12.575Z,7.18
2023-05-01T04:24:41.867Z,4.00
2023-05-01T04:27:10.446Z,5.68
2023-05-01T04:29:38.180Z,5.30
2023-05-01T04:32:07.529Z,5.72
2023-05-01T04:34:35.581Z,4.18
2023-05-01T04:37:07.189Z,4.78
2023-05-01T04:39:36.230Z,5.45
2023-05-01T04:42:05.171Z,4.15
2023-05-01T04:44:34.218Z,5.75
2023-05-01T04:47:03.323Z,4.63
2023-05-01T04:49:33.125Z,6.07
2023-05-01T04:52:00.974Z,4.43
2023-05-01T04:54:36.265Z,3.63
2023-05-01T04:57:04.305Z,4.47
2023-05-01T04:59:33.201Z,4.90
2023-05-01T05:02:01.774Z,6.32
2023-05-01T05:04:29.601Z,6.25
2023-05-01T05:06:59.137Z,7.28
2023-05-01T05:09:37.759Z,5.72
2023-05-01T05:12:06.516Z,5.82
2023-05-01T05:14:34.837Z,5.47
2023-05-01T05:17:03.240Z,5.60
2023-05-01T05:19:31.366Z,4.28
2023-05-01T05:22:02.755Z,5.78
2023-05-01T05:24:33.969Z,5.50
2023-05-01T05:27:02.215Z,5.93
2023-05-01T05:29:29.954Z,7.53
2023-05-01T05:31:59.661Z,4.97
2023-05-01T05:34:27.766Z,4.85
2023-05-01T05:36:55.541Z,4.25
2023-05-01T05:39:27.142Z,14.50
2023-05-01T05:41:55.449Z,7.70
2023-05-01T05:44:23.295Z,4.50
2023-05-01T05:46:51.954Z,4.97
2023-05-01T05:49:29.128Z,5.97
2023-05-01T05:51:56.993Z,4.15
2023-05-01T05:54:27.030Z,5.75
2023-05-01T05:56:55.201Z,5.43
2023-05-01T05:59:22.889Z,4.03
2023-05-01T06:01:50.765Z,4.47
2023-05-01T06:04:18.709Z,7.95
2023-05-01T06:06:46.751Z,4.40
2023-05-01T06:09:17.253Z,7.30
2023-05-01T06:11:46.338Z,7.60
2023-05-01T06:14:14.744Z,6.95
2023-05-01T06:16:42.424Z,4.80
2023-05-01T06:19:12.085Z,5.70
2023-05-01T06:21:41.209Z,4.97
2023-05-01T06:24:11.459Z,7.03
2023-05-01T06:26:51.964Z,7.25
2023-05-01T06:29:20.070Z,5.40
2023-05-01T06:31:47.947Z,5.82
2023-05-01T06:34:15.883Z,5.20
2023-05-01T06:36:53.742Z,7.75
2023-05-01T06:39:21.806Z,6.63
2023-05-01T06:41:51.812Z,4.53
2023-05-01T06:44:32.718Z,7.18
2023-05-01T06:47:02.769Z,6.90
2023-05-01T06:49:30.495Z,4.97
2023-05-01T06:51:58.389Z,7.43
2023-05-01T06:54:27.097Z,6.07
2023-05-01T06:56:56.646Z,6.20
2023-05-01T06:59:25.485Z,5.75
2023-05-01T07:01:54.168Z,7.50
2023-05-01T07:04:29.802Z,5.32
2023-05-01T07:07:00.750Z,5.68
2023-05-01T07:09:30.558Z,5.43
2023-05-01T07:12:01.470Z,5.10
2023-05-01T07:14:29.493Z,6.38
2023-05-01T07:16:57.245Z,7.28
2023-05-01T07:19:25.104Z,4.65
2023-05-01T07:21:53.409Z,5.10
2023-05-01T07:24:21.401Z,5.43
2023-05-01T07:26:50.150Z,5.63
2023-05-01T07:29:19.340Z,4.57
2023-05-01T07:31:48.103Z,4.45
2023-05-01T07:34:17.224Z,6.20
2023-05-01T07:36:44.895Z,4.93
2023-05-01T07:39:13.814Z,5.38
2023-05-01T07:41:41.545Z,5.28
2023-05-01T07:44:09.309Z,5.88
2023-05-01T07:46:38.789Z,8.98
2023-05-01T07:49:06.510Z,8.43
2023-05-01T07:51:34.268Z,5.68
2023-05-01T07:54:05.426Z,5.90
2023-05-01T07:56:33.536Z,7.90
2023-05-01T07:59:01.282Z,5.40
2023-05-01T08:01:29.146Z,6.38
2023-05-01T08:03:58.987Z,7.47
2023-05-01T08:06:28.114Z,6.13
2023-05-01T08:08:55.886Z,4.97
2023-05-01T08:11:24.617Z,8.48
2023-05-01T08:13:52.509Z,5.85
2023-05-01T08:16:21.969Z,6.85
2023-05-01T08:18:50.423Z,6.18
2023-05-01T08:21:19.946Z,7.00
2023-05-01T08:23:47.562Z,6.13
2023-05-01T08:26:16.542Z,5.47
2023-05-01T08:28:44.183Z,7.50
2023-05-01T08:31:12.186Z,6.07
2023-05-01T08:33:43.090Z,7.43
2023-05-01T08:36:11.385Z,6.28
2023-05-01T08:38:40.774Z,4.70
2023-05-01T08:41:10.330Z,4.95
2023-05-01T08:43:38.638Z,5.65
2023-05-01T08:46:11.004Z,7.20
2023-05-01T08:48:42.612Z,6.93
2023-05-01T08:51:11.342Z,6.43
2023-05-01T08:53:42.393Z,5.90
2023-05-01T08:56:14.008Z,5.30
2023-05-01T08:58:42.965Z,5.28
2023-05-01T09:01:16.555Z,5.70
2023-05-01T09:03:46.559Z,5.70
2023-05-01T09:06:14.946Z,8.27
2023-05-01T09:08:44.447Z,6.78
2023-05-01T09:11:13.337Z,7.20
2023-05-01T09:13:41.396Z,6.93
2023-05-01T09:16:09.818Z,6.13
2023-05-01T09:18:38.400Z,5.60
2023-05-01T09:21:08.450Z,5.65
2023-05-01T09:23:38.303Z,5.60
2023-05-01T09:26:07.941Z,6.03
2023-05-01T09:28:44.543Z,6.90
2023-05-01T09:31:29.108Z,5.13
2023-05-01T09:33:59.112Z,5.88
2023-05-01T09:36:29.702Z,5.88
2023-05-01T09:38:57.996Z,6.22
2023-05-01T09:41:27.565Z,6.65
2023-05-01T09:43:56.144Z,6.03
2023-05-01T09:46:25.133Z,5.95
2023-05-01T09:48:57.149Z,7.60
2023-05-01T09:51:26.861Z,6.85
2023-05-01T09:53:56.782Z,6.60
2023-05-01T09:56:25.749Z,8.80
2023-05-01T09:58:56.510Z,7.95
2023-05-01T10:01:40.107Z,7.53
2023-05-01T10:04:09.200Z,6.78
2023-05-01T10:06:37.694Z,8.00
2023-05-01T10:09:06.971Z,8.60
2023-05-01T10:11:49.383Z,6.72
2023-05-01T10:14:20.232Z,8.82
2023-05-01T10:16:49.707Z,7.13
2023-05-01T10:19:18.920Z,7.45
2023-05-01T10:21:47.175Z,7.00
2023-05-01T10:24:16.703Z,7.28
2023-05-01T10:26:44.959Z,7.57
2023-05-01T10:29:13.564Z,8.38
2023-05-01T10:31:42.883Z,7.38
2023-05-01T10:34:12.974Z,7.90
2023-05-01T10:36:45.157Z,7.43
2023-05-01T10:39:30.786Z,7.60
2023-05-01T10:42:03.526Z,12.43
2023-05-01T10:44:32.132Z,8.75
2023-05-01T10:47:01.353Z,9.45
2023-05-01T10:50:02.268Z,9.32
2023-05-01T10:52:30.520Z,8.63
2023-05-01T10:55:32.105Z,9.93
2023-05-01T10:57:59.965Z,8.85
2023-05-01T11:00:27.820Z,9.02
2023-05-01T11:03:38.897Z,9.50
2023-05-01T11:06:07.255Z,9.82
2023-05-01T11:08:37.379Z,9.57
2023-05-01T11:11:44.667Z,10.18
2023-05-01T11:14:12.400Z,9.73
2023-05-01T11:16:48.706Z,11.10
2023-05-01T11:19:49.467Z,10.07
2023-05-01T11:22:18.526Z,9.30
2023-05-01T11:24:47.955Z,9.18
2023-05-01T11:27:16.472Z,11.40
2023-05-01T11:29:49.604Z,10.18
2023-05-01T11:32:25.117Z,10.18
2023-05-01T11:34:54.672Z,10.65
2023-05-01T11:37:40.330Z,9.20
2023-05-01T11:40:21.938Z,9.82
2023-05-01T11:42:50.098Z,9.75
2023-05-01T11:45:18.369Z,9.07
2023-05-01T11:47:46.425Z,9.85
2023-05-01T11:50:16.901Z,9.63
2023-05-01T11:52:46.548Z,10.07
2023-05-01T11:55:14.435Z,9.93
2023-05-01T11:57:49.866Z,9.50
2023-05-01T12:00:27.897Z,9.38
2023-05-01T12:03:00.577Z,9.48
2023-05-01T12:05:31.341Z,9.55
2023-05-01T12:08:09.893Z,9.88
2023-05-01T12:10:39.463Z,9.02
2023-05-01T12:13:09.060Z,9.50
2023-05-01T12:15:39.113Z,8.93
2023-05-01T12:18:07.299Z,7.72
2023-05-01T12:20:37.844Z,9.70
2023-05-01T12:23:06.773Z,8.93
2023-05-01T12:25:35.741Z,9.35
2023-05-01T12:28:05.287Z,8.20
2023-05-01T12:30:33.157Z,9.10
2023-05-01T12:33:08.985Z,10.05
2023-05-01T12:35:38.882Z,9.70
2023-05-01T12:38:14.782Z,10.73
2023-05-01T12:40:52.529Z,9.43
2023-05-01T12:43:21.183Z,9.10
2023-05-01T12:45:53.299Z,6.88
2023-05-01T12:48:21.618Z,6.07
2023-05-01T12:50:54.603Z,6.22
2023-05-01T12:53:23.439Z,7.60
2023-05-01T12:55:52.597Z,8.10
2023-05-01T12:58:21.056Z,7.30
2023-05-01T13:00:50.611Z,8.40
2023-05-01T13:03:24.720Z,8.02
2023-05-01T13:05:57.439Z,7.55
2023-05-01T13:08:31.711Z,9.05
2023-05-01T13:11:01.086Z,4.72
2023-05-01T13:13:35.067Z,6.55
2023-05-01T13:16:09.800Z,6.20
2023-05-01T13:18:45.508Z,6.28
2023-05-01T13:21:17.464Z,5.15
2023-05-01T13:23:54.302Z,5.60
2023-05-01T13:26:28.462Z,5.85
2023-05-01T13:28:57.109Z,6.78
2023-05-01T13:31:25.314Z,5.93
2023-05-01T13:33:55.205Z,5.53
2023-05-01T13:36:26.334Z,20.23
2023-05-01T13:38:56.856Z,13.13
2023-05-01T13:41:27.255Z,7.90
2023-05-01T13:43:57.435Z,7.60
2023-05-01T13:46:26.849Z,10.93
2023-05-01T13:48:54.756Z,7.68
2023-05-01T13:51:25.832Z,7.55
2023-05-01T13:53:54.476Z,6.97
2023-05-01T13:56:23.106Z,6.70
2023-05-01T13:58:51.101Z,6.55
2023-05-01T14:01:20.709Z,6.05
2023-05-01T14:03:49.869Z,5.63
2023-05-01T14:06:18.951Z,5.03
2023-05-01T14:08:49.840Z,4.68
2023-05-01T14:11:18.053Z,7.93
2023-05-01T14:13:47.102Z,6.63
2023-05-01T14:16:24.273Z,4.85
2023-05-01T14:18:55.212Z,4.50
2023-05-01T14:21:24.623Z,5.05
2023-05-01T14:23:54.032Z,5.25
2023-05-01T14:26:24.122Z,5.20
2023-05-01T14:28:52.319Z,5.50
2023-05-01T14:31:27.103Z,5.45
2023-05-01T14:33:59.556Z,4.88
2023-05-01T14:36:31.088Z,5.38
2023-05-01T14:39:01.781Z,4.55
2023-05-01T14:41:30.100Z,5.60
2023-05-01T14:43:58.184Z,5.18
2023-05-01T14:46:30.846Z,4.38
2023-05-01T14:48:59.231Z,8.20
2023-05-01T14:51:27.306Z,5.28
2023-05-01T14:53:55.476Z,4.78
2023-05-01T14:56:24.764Z,4.00
2023-05-01T14:58:52.575Z,7.20
2023-05-01T15:01:20.651Z,4.50
2023-05-01T15:03:48.459Z,4.60
2023-05-01T15:06:17.228Z,4.35
2023-05-01T15:08:45.547Z,4.70
2023-05-01T15:11:15.268Z,4.93
2023-05-01T15:13:45.139Z,3.72
2023-05-01T15:16:13.502Z,4.05
2023-05-01T15:18:41.494Z,5.20
2023-05-01T15:21:09.355Z,3.58
2023-05-01T15:23:38.070Z,3.90
2023-05-01T15:26:05.944Z,6.90
2023-05-01T15:28:33.821Z,4.10
2023-05-01T15:31:03.543Z,3.50
2023-05-01T15:33:31.726Z,4.75
2023-05-01T15:35:59.493Z,3.45
2023-05-01T15:38:28.204Z,3.50
2023-05-01T15:40:56.201Z,3.53
2023-05-01T15:43:24.366Z,4.43
2023-05-01T15:45:53.020Z,5.75
2023-05-01T15:48:22.593Z,4.13
2023-05-01T15:50:50.293Z,5.53
2023-05-01T15:53:18.052Z,3.58
2023-05-01T15:55:45.961Z,3.53
2023-05-01T15:58:17.093Z,4.85
2023-05-01T16:00:48.220Z,4.45
2023-05-01T16:03:18.424Z,4.45
2023-05-01T16:05:48.737Z,5.03
2023-05-01T16:08:18.653Z,3.22
2023-05-01T16:10:47.564Z,5.00
2023-05-01T16:13:15.880Z,7.07
2023-05-01T16:15:43.700Z,6.63
2023-05-01T16:18:20.093Z,4.30
2023-05-01T16:20:53.303Z,3.40
2023-05-01T16:23:21.680Z,4.53
2023-05-01T16:25:50.106Z,4.07
2023-05-01T16:28:18.700Z,4.40
2023-05-01T16:30:46.685Z,4.88
2023-05-01T16:33:18.851Z,5.30
2023-05-01T16:35:49.807Z,4.82
2023-05-01T16:38:17.826Z,3.95
2023-05-01T16:40:46.976Z,5.07
2023-05-01T16:43:14.822Z,5.10
2023-05-01T16:45:42.863Z,5.85
2023-05-01T16:48:10.882Z,5.25
2023-05-01T16:50:41.084Z,3.45
2023-05-01T16:53:10.348Z,4.45
2023-05-01T16:55:38.091Z,3.42
2023-05-01T16:58:07.101Z,4.50
2023-05-01T17:00:35.672Z,4.53
2023-05-01T17:03:03.517Z,4.70
2023-05-01T17:05:31.959Z,3.67
2023-05-01T17:07:59.714Z,4.10
2023-05-01T17:10:28.791Z,4.40
2023-05-01T17:12:56.972Z,5.05
2023-05-01T17:15:24.769Z,6.38
2023-05-01T17:17:52.525Z,3.42
2023-05-01T17:20:21.287Z,4.40
2023-05-01T17:22:49.312Z,2.90
2023-05-01T17:25:17.370Z,3.03
2023-05-01T17:27:46.578Z,3.42
2023-05-01T17:30:14.716Z,4.97
2023-05-01T17:32:43.036Z,4.38
2023-05-01T17:35:10.881Z,4.07
2023-05-01T17:37:39.804Z,4.13
2023-05-01T17:40:10.928Z,3.35
2023-05-01T17:42:38.950Z,3.17
2023-05-01T17:45:10.277Z,5.40
2023-05-01T17:47:41.811Z,5.13
2023-05-01T17:50:11.354Z,4.07
2023-05-01T17:52:39.567Z,3.83
2023-05-01T17:55:08.205Z,4.78
2023-05-01T17:57:37.041Z,3.42
2023-05-01T18:00:05.629Z,6.15
2023-05-01T18:02:44.646Z,4.13
2023-05-01T18:05:13.233Z,4.25
2023-05-01T18:07:41.247Z,3.25
2023-05-01T18:10:10.619Z,3.72
2023-05-01T18:12:39.425Z,4.75
2023-05-01T18:15:07.858Z,6.63
2023-05-01T18:17:35.851Z,7.47
2023-05-01T18:20:05.645Z,9.85
2023-05-01T18:22:34.624Z,3.63
2023-05-01T18:25:02.786Z,3.42
2023-05-01T18:27:30.572Z,3.47
2023-05-01T18:29:58.713Z,3.00
2023-05-01T18:32:39.288Z,11.35
2023-05-01T18:35:13.954Z,4.30
2023-05-01T18:37:42.725Z,3.10
2023-05-01T18:40:11.527Z,3.65
2023-05-01T18:42:41.187Z,3.40
2023-05-01T18:45:09.839Z,5.43
2023-05-01T18:47:37.842Z,4.00
2023-05-01T18:50:06.637Z,4.78
2023-05-01T18:52:37.067Z,4.10
2023-05-01T18:55:05.728Z,3.53
2023-05-01T18:57:33.541Z,3.25
2023-05-01T19:00:01.822Z,3.90
2023-05-01T19:02:29.833Z,3.38
2023-05-01T19:04:58.474Z,3.13
2023-05-01T19:07:26.715Z,3.22
2023-05-01T19:09:57.154Z,3.42
2023-05-01T19:12:25.128Z,3.20
2023-05-01T19:14:52.938Z,3.08
2023-05-01T19:17:21.457Z,3.92
2023-05-01T19:19:49.772Z,4.30
2023-05-01T19:22:17.581Z,2.92
2023-05-01T19:24:47.481Z,3.65
2023-05-01T19:27:17.996Z,3.45
2023-05-01T19:29:49.185Z,2.95
2023-05-01T19:32:17.568Z,3.47
2023-05-01T19:34:45.680Z,2.92
2023-05-01T19:37:13.519Z,3.05
2023-05-01T19:39:41.830Z,5.13
2023-05-01T19:42:09.542Z,5.80
2023-05-01T19:44:38.652Z,5.75
2023-05-01T19:47:06.374Z,3.47
2023-05-01T19:49:34.007Z,3.80
2023-05-01T19:52:01.691Z,5.68
2023-05-01T19:54:29.540Z,3.75
2023-05-01T19:56:58.373Z,3.83
2023-05-01T19:59:26.728Z,4.10
2023-05-01T20:01:57.765Z,8.38
2023-05-01T20:04:27.964Z,4.18
2023-05-01T20:06:55.889Z,4.20
2023-05-01T20:09:23.712Z,5.95
2023-05-01T20:11:52.336Z,5.25
2023-05-01T20:14:20.714Z,4.78
2023-05-01T20:16:48.969Z,6.07
2023-05-01T20:19:19.821Z,4.95
2023-05-01T20:21:47.887Z,4.53
2023-05-01T20:24:15.671Z,5.95
2023-05-01T20:26:43.305Z,6.28
2023-05-01T20:29:10.987Z,4.97
2023-05-01T20:31:38.722Z,4.80
2023-05-01T20:34:06.586Z,4.97
2023-05-01T20:36:35.769Z,6.72
2023-05-01T20:39:03.514Z,5.75
2023-05-01T20:41:31.191Z,7.10
2023-05-01T20:43:59.076Z,5.90
2023-05-01T20:46:27.017Z,5.82
2023-05-01T20:48:55.994Z,5.70
2023-05-01T20:51:23.695Z,6.82
2023-05-01T20:53:52.782Z,6.88
2023-05-01T20:56:20.895Z,5.75
2023-05-01T20:58:48.593Z,5.93
2023-05-01T21:01:16.880Z,6.00
2023-05-01T21:03:44.700Z,5.97
2023-05-01T21:06:14.728Z,6.20
2023-05-01T21:08:42.753Z,6.28
2023-05-01T21:11:12.115Z,6.00
2023-05-01T21:13:40.209Z,6.90
2023-05-01T21:16:11.130Z,5.85
2023-05-01T21:18:39.842Z,6.40
2023-05-01T21:21:07.539Z,5.85
2023-05-01T21:23:35.538Z,6.68
2023-05-01T21:26:03.967Z,6.20
2023-05-01T21:28:33.310Z,8.40
2023-05-01T21:31:01.038Z,5.88
2023-05-01T21:33:29.434Z,5.93
2023-05-01T21:35:57.494Z,6.05
2023-05-01T21:38:25.316Z,7.03
2023-05-01T21:40:53.223Z,5.90
2023-05-01T21:43:20.877Z,6.28
2023-05-01T21:45:49.894Z,5.97
2023-05-01T21:48:20.237Z,6.43
2023-05-01T21:50:51.250Z,6.05
2023-05-01T21:53:18.965Z,5.30
2023-05-01T21:55:47.368Z,5.70
2023-05-01T21:58:15.503Z,5.95
2023-05-01T22:00:43.264Z,6.18
2023-05-01T22:03:12.620Z,5.68
2023-05-01T22:05:41.764Z,4.60
2023-05-01T22:08:09.628Z,5.28
2023-05-01T22:10:37.310Z,4.63
2023-05-01T22:13:06.323Z,5.40
2023-05-01T22:15:34.206Z,4.95
2023-05-01T22:18:02.000Z,5.30
2023-05-01T22:20:32.249Z,5.38
2023-05-01T22:22:59.981Z,5.57
2023-05-01T22:25:28.488Z,5.60
2023-05-01T22:27:56.648Z,5.90
2023-05-01T22:30:25.263Z,5.95
2023-05-01T22:32:53.102Z,5.90
2023-05-01T22:35:21.332Z,5.15
2023-05-01T22:37:50.376Z,7.57
2023-05-01T22:40:18.220Z,5.03
2023-05-01T22:42:47.009Z,5.20
2023-05-01T22:45:14.984Z,5.03
2023-05-01T22:47:42.852Z,5.28
2023-05-01T22:50:12.170Z,4.93
2023-05-01T22:52:40.278Z,5.00
2023-05-01T22:55:10.015Z,4.78
2023-05-01T22:57:37.795Z,4.40
2023-05-01T23:00:07.928Z,4.63
2023-05-01T23:02:35.692Z,4.10
2023-05-01T23:05:03.546Z,3.47
2023-05-01T23:07:31.238Z,4.00
2023-05-01T23:09:59.271Z,4.20
2023-05-01T23:12:28.817Z,4.10
2023-05-01T23:14:56.566Z,4.35
2023-05-01T23:17:24.327Z,4.18
2023-05-01T23:19:54.668Z,4.35
2023-05-01T23:22:23.105Z,3.85
2023-05-01T23:24:50.900Z,3.35
2023-05-01T23:27:22.607Z,4.47
2023-05-01T23:29:56.971Z,4.32
2023-05-01T23:32:27.821Z,3.88
2023-05-01T23:34:56.820Z,4.32
2023-05-01T23:37:25.044Z,3.83
2023-05-01T23:39:53.701Z,3.92
2023-05-01T23:42:22.849Z,3.90
2023-05-01T23:44:51.187Z,3.85
2023-05-01T23:47:20.491Z,4.55
2023-05-01T23:49:48.936Z,4.18
2023-05-01T23:52:17.815Z,4.15
2023-05-01T23:54:45.989Z,3.65
2023-05-01T23:57:15.036Z,4.82
2023-05-01T23:59:45.295Z,3.88
